Kalamunda, Australia
Current Conditions -  °F | °C
As of 9:30 PM on Thursday 30 Oct 2014 (Local Time) from YPPH Reporting Station
Broken Clouds Broken Clouds  
Wind Chill: 63°   Ceiling: 4500
Heat Index: 63°   Visibility: 6mi
Dew Point: 54°   Wind: 12mph
Humidity: 72%   Direction: 230°SW
Pressure: 29.97"   Gusts: NA
Location:  31.97°S, 116.06°E
Report Text: YPPH 301330Z 23010KT 9999 FEW033 BKN045 17/12 Q1015
Loading
Personal Weather Stations






























Interactive Weather Map
Tropical Storm Tracking
New forecast layout! Learn more

10-Day Weather Forecast

Advertisements
Track Severe Weather on mobile